PAEI METAR and TAF weather

Enter ICAO airport designator
Station Type Date Time Source
PAEI METAR 2021/05/12 04:56 UTC NOAA

PAEI 120456Z 09008KT 10SM FEW005 FEW014 BKN060 09/07 A2993 RMK AO2A SLP141 T00910065 $


Station Type Date Time Source
PAEI Decoded METAR 2021/05/12 04:56 UTC NOAA

Fairbanks, Eielson Air Force Base, AK, United States (PAEI) 64-39N 147-06W 167M
May 12, 2021 - 12:56 AM EDT / 2021.05.12 0456 UTC
Wind: from the E (090 degrees) at 9 MPH (8 KT):0
Visibility: 10 mile(s):0
Sky conditions: mostly cloudy
Temperature: 48.4 F (9.1 C)
Dew Point: 43.7 F (6.5 C)
Relative Humidity: 83%
Pressure (altimeter): 29.93 in. Hg (1013 hPa)
ob: PAEI 120456Z 09008KT 10SM FEW005 FEW014 BKN060 09/07 A2993 RMK AO2A SLP141 T00910065
cycle: 5

Station Type Date Time Source
PAEI TAF 2021/05/12 00:51 UTC NOAA

TAF
AMD PAEI 120030Z 1200/1304 03012G18KT 9999 -SHRA FEW020 SCT040 BKN060 610605 QNH2983INS
TEMPO 1200/1204 VRB15G25KT 8000 -SHRA VCTS BKN040CB
BECMG 1204/1205 VRB06KT 8000 -SHRA SCT010 BKN025 610504 QNH2989INS
BECMG 1208/1209 VRB03KT 9999 VCSH FEW005 SCT010 BKN030 610505 QNH2994INS
TEMPO 1209/1215 4800 BR
BECMG 1218/1219 07006KT 8000 -RA SCT020 BKN050 620505 QNH3000INS TX13/1222Z TN02/1214Z

Example: see airport list